Flight Track Log - Related Links

Times and Time Zones

All times are in EDT time to prevent confusion due to time zone crossing. See the SWA4021 flight status page for this flight to view local times or setup timezone preferences in your user account.

Time Position Orientation Groundspeed Altitude Reporting Facility
EDT Latitude Longitude Course Direction KTS MPH feet Rate Location/Type
Tue 11:40:12 AM 40.3925 -80.2742 115° Southeast 274 315 6,400  Level Cleveland Center
Tue 11:41:14 AM 40.3131 -80.2406 162° South 295 339 10,500 3,194 Climbing Cleveland Center
Tue 11:42:16 AM 40.2258 -80.2008 161° South 342 394 13,000 2,758 Climbing Cleveland Center
Tue 11:43:18 AM 40.1297 -80.1589 162° South 364 419 16,200 3,000 Climbing Cleveland Center
Tue 11:44:00 AM 40.2710 -79.6046 166° South  Level Estimated
Tue 11:44:20 AM 40.0286 -80.1153 162° South 381 438 19,200  Level Cleveland Center
Tue 11:45:00 AM 40.2333 -79.4984 115° Southeast  Level Estimated
Tue 11:45:21 AM 39.9275 -80.0572 156° South 400 460 21,000  Level Cleveland Center
Tue 11:46:23 AM 39.8839 -79.8972 110° East 397 457 22,900 968 Climbing Cleveland Center
Tue 11:47:25 AM 39.8519 -79.7628 107° East 393 452 23,000 48 Climbing Cleveland Center
Tue 11:48:27 AM 39.8200 -79.6267 107° East 393 452 23,000  Level Cleveland Center
Tue 11:49:28 AM 39.7861 -79.4844 107° East 407 468 23,000  Level Cleveland Center
Tue 11:50:30 AM 39.7519 -79.3372 107° East 421 484 23,000  Level Cleveland Center
Tue 11:51:32 AM 39.7175 -79.1939 107° East 421 484 23,000  Level Cleveland Center
Tue 11:52:34 AM 39.6764 -79.0217 107° East 419 482 23,000  Level Cleveland Center
Tue 11:53:35 AM 39.6422 -78.8811 107° East 419 482 23,000  Level Cleveland Center
Tue 11:54:37 AM 39.6075 -78.7350 107° East 421 484 23,000 -726 Level Cleveland Center
Tue 11:55:39 AM 39.5711 -78.5911 108° East 421 484 21,500 -1,707 Descending Cleveland Center
Tue 11:56:40 AM 39.5378 -78.4503 107° East 409 471 19,500 -1,951 Descending Cleveland Center
Tue 11:57:42 AM 39.5039 -78.3164 108° East 395 455 17,500 -2,129 Descending Cleveland Center
Tue 11:58:44 AM 39.4636 -78.1589 108° East 387 445 15,100 -1,161 Descending Cleveland Center
Tue 11:59:46 AM 39.4439 -78.0292 101° East 372 428 15,100  Level Cleveland Center
Tue 12:00:47 PM 39.4453 -77.8986 89° East 366 421 15,100  Level Cleveland Center
Tue 12:01:49 PM 39.4461 -77.7636 89° East 367 422 15,100 -140 Level Cleveland Center
Tue 12:02:56 PM 39.4444 -77.6258 91° East 366 421 14,800 -1,039 Descending Washington Center
Tue 12:03:56 PM 39.4444 -77.4997 90° East 360 414 12,900 -1,850 Descending Washington Center
Tue 12:04:56 PM 39.4442 -77.3706 90° East 355 409 11,100 -942 Descending Washington Center
Tue 12:05:57 PM 39.4667 -77.2333 78° East 353 406 11,000 -496 Descending Potomac TRACON
Tue 12:06:57 PM 39.4833 -77.1167 79° East 321 369 10,100 -1,200 Descending Potomac TRACON
Tue 12:07:57 PM 39.4833 -77.0000 90° East 306 352 8,600 -1,400 Descending Potomac TRACON
Tue 12:08:57 PM 39.5000 -76.9000 78° East 304 350 7,300 -1,350 Descending Potomac TRACON
Tue 12:09:57 PM 39.4833 -76.8000 102° East 307 353 5,900 -1,150 Descending Potomac TRACON
Tue 12:10:57 PM 39.4667 -76.6833 100° East 288 331 5,000 -574 Descending Potomac TRACON
Tue 12:11:52 PM 39.4333 -76.6167 123° Southeast 286 329 4,800 -470 Descending Potomac TRACON
Tue 12:12:52 PM 39.3667 -76.5500 142° Southeast 285 328 4,100 -400 Descending Potomac TRACON
Tue 12:13:52 PM 39.3167 -76.4833 134° Southeast 285 328 4,000 -313 Descending Potomac TRACON
Tue 12:14:47 PM 39.2500 -76.4667 169° South 269 310 3,500 -522 Descending Potomac TRACON
Tue 12:15:47 PM 39.1833 -76.4833 191° South 241 277 3,000 -550 Descending Potomac TRACON
Tue 12:16:47 PM 39.1500 -76.5333 229° Southwest 195 224 2,400 -550 Descending Potomac TRACON
Tue 12:17:47 PM 39.1167 -76.5833 229° Southwest 166 191 1,900 -700 Descending Potomac TRACON
Tue 12:18:47 PM 39.1333 -76.6333 293° West 141 162 1,000 -900 Descending Potomac TRACON

Login

Don't have an account? Register now (free) for customized features, flight alerts, and more!